createdAt,value
2019-06-07T00:02:01.265Z,8.30
2019-06-07T00:06:16.417Z,8.20
2019-06-07T00:10:35.957Z,8.10
2019-06-07T00:14:32.260Z,8.10
2019-06-07T00:18:41.136Z,8.10
2019-06-07T00:22:49.921Z,8.20
2019-06-07T00:26:59.308Z,8.10
2019-06-07T00:31:08.994Z,8.20
2019-06-07T00:35:21.016Z,8.20
2019-06-07T00:39:28.584Z,8.10
2019-06-07T00:43:37.438Z,8.00
2019-06-07T00:47:46.223Z,7.90
2019-06-07T00:51:55.015Z,7.90
2019-06-07T00:56:03.881Z,7.80
2019-06-07T01:00:14.953Z,7.70
2019-06-07T01:04:26.661Z,7.70
2019-06-07T01:08:34.495Z,7.70
2019-06-07T01:12:43.338Z,7.70
2019-06-07T01:16:59.429Z,7.70
2019-06-07T01:21:02.738Z,7.70
2019-06-07T01:25:11.687Z,7.80
2019-06-07T01:29:22.275Z,7.80
2019-06-07T01:33:49.837Z,7.80
2019-06-07T01:37:41.815Z,7.80
2019-06-07T01:41:50.590Z,7.80
2019-06-07T01:45:59.366Z,7.70
2019-06-07T01:50:09.307Z,7.70
2019-06-07T01:58:29.230Z,7.60
2019-06-07T02:02:38.114Z,7.60
2019-06-07T02:06:46.961Z,7.60
2019-06-07T02:10:56.058Z,7.60
2019-06-07T02:15:06.452Z,7.60
2019-06-07T02:19:15.397Z,7.60
2019-06-07T02:23:30.274Z,7.50
2019-06-07T02:27:34.734Z,7.40
2019-06-07T02:31:43.920Z,7.40
2019-06-07T02:35:52.687Z,7.30
2019-06-07T02:40:01.473Z,7.30
2019-06-07T02:44:10.251Z,7.30
2019-06-07T02:48:19.351Z,7.20
2019-06-07T02:52:31.654Z,7.10
2019-06-07T02:56:56.693Z,7.10
2019-06-07T03:01:08.952Z,7.10
2019-06-07T03:05:01.095Z,7.10
2019-06-07T03:09:09.990Z,7.00
2019-06-07T03:13:20.461Z,7.00
2019-06-07T03:17:49.261Z,7.00
2019-06-07T03:21:59.166Z,7.00
2019-06-07T03:26:08.112Z,7.00
2019-06-07T03:30:38.893Z,7.00
2019-06-07T03:34:29.722Z,7.00
2019-06-07T03:38:39.840Z,7.10
2019-06-07T03:42:48.933Z,7.10
2019-06-07T03:46:57.694Z,7.10
2019-06-07T03:51:23.601Z,7.20
2019-06-07T03:55:16.977Z,7.30
2019-06-07T03:59:25.765Z,7.40
2019-06-07T04:03:45.395Z,7.50
2019-06-07T04:07:45.039Z,7.70
2019-06-07T04:11:53.807Z,8.30
2019-06-07T04:16:05.802Z,8.60
2019-06-07T04:20:15.142Z,9.00
2019-06-07T04:24:23.913Z,9.10
2019-06-07T04:29:25.055Z,8.90
2019-06-07T04:32:45.047Z,8.80
2019-06-07T04:36:59.185Z,8.80
2019-06-07T04:41:04.954Z,9.60
2019-06-07T04:45:33.138Z,11.30
2019-06-07T04:49:25.727Z,12.90
2019-06-07T04:53:38.094Z,13.90
2019-06-07T04:57:45.356Z,14.20
2019-06-07T05:01:54.150Z,14.50
2019-06-07T05:06:03.026Z,15.00
2019-06-07T05:10:11.968Z,15.50
2019-06-07T05:14:20.826Z,15.90
2019-06-07T05:18:29.732Z,16.00
2019-06-07T05:22:44.389Z,15.20
2019-06-07T05:26:49.542Z,14.40
2019-06-07T05:31:04.643Z,14.00
2019-06-07T05:35:10.322Z,13.80
2019-06-07T05:39:19.206Z,13.70
2019-06-07T05:43:29.817Z,13.80
2019-06-07T05:47:44.391Z,13.90
2019-06-07T05:51:49.143Z,14.00
2019-06-07T05:55:57.926Z,14.00
2019-06-07T06:00:06.959Z,14.00
2019-06-07T06:04:15.765Z,14.00
2019-06-07T06:08:24.649Z,14.10
2019-06-07T06:12:38.325Z,14.30
2019-06-07T06:16:47.432Z,14.40
2019-06-07T06:21:15.211Z,14.30
2019-06-07T06:29:16.239Z,14.90
2019-06-07T06:33:33.669Z,15.10
2019-06-07T06:37:38.040Z,15.10
2019-06-07T06:41:58.598Z,15.10
2019-06-07T06:45:56.709Z,15.10
2019-06-07T06:50:07.188Z,15.30
2019-06-07T06:54:16.050Z,15.60
2019-06-07T06:58:24.997Z,16.00
2019-06-07T07:02:33.998Z,16.10
2019-06-07T07:06:43.369Z,16.00
2019-06-07T07:10:54.466Z,16.20
2019-06-07T07:15:02.864Z,16.40
2019-06-07T07:19:11.641Z,16.60
2019-06-07T07:23:20.574Z,16.60
2019-06-07T07:27:29.355Z,16.90
2019-06-07T07:31:38.474Z,17.10
2019-06-07T07:36:11.060Z,17.10
2019-06-07T07:40:21.400Z,17.30
2019-06-07T07:44:09.976Z,17.50
2019-06-07T07:48:19.116Z,17.60
2019-06-07T07:52:27.902Z,17.90
2019-06-07T07:56:36.706Z,18.00
2019-06-07T08:00:52.819Z,18.20
2019-06-07T08:09:07.793Z,19.10
2019-06-07T08:13:25.982Z,19.10
2019-06-07T08:17:27.230Z,19.10
2019-06-07T08:21:36.147Z,19.30
2019-06-07T08:25:45.015Z,19.40
2019-06-07T08:30:13.889Z,19.60
2019-06-07T08:34:05.170Z,19.90
2019-06-07T08:38:26.028Z,20.00
2019-06-07T08:42:36.467Z,20.20
2019-06-07T08:46:34.992Z,20.50
2019-06-07T08:50:43.852Z,20.40
2019-06-07T08:54:54.862Z,20.20
2019-06-07T08:59:11.282Z,20.20
2019-06-07T09:03:13.942Z,20.30
2019-06-07T09:07:22.961Z,20.50
2019-06-07T09:11:31.838Z,20.50
2019-06-07T09:15:40.694Z,20.80
2019-06-07T09:19:49.609Z,20.80
2019-06-07T09:24:02.950Z,20.80
2019-06-07T09:28:18.775Z,20.80
2019-06-07T09:32:19.658Z,21.20
2019-06-07T09:36:28.439Z,21.40
2019-06-07T09:40:37.563Z,21.30
2019-06-07T09:44:46.444Z,21.60
2019-06-07T09:49:21.225Z,21.70
2019-06-07T09:53:18.971Z,22.40
2019-06-07T09:57:17.928Z,22.60
2019-06-07T10:01:27.004Z,22.70
2019-06-07T10:05:35.916Z,22.60
2019-06-07T10:13:58.401Z,22.70
2019-06-07T10:18:09.009Z,22.80
2019-06-07T10:22:18.152Z,23.10
2019-06-07T10:26:26.991Z,23.30
2019-06-07T10:30:35.925Z,23.20
2019-06-07T10:34:44.887Z,23.70
2019-06-07T10:38:53.670Z,24.10
2019-06-07T10:43:02.987Z,24.50
2019-06-07T10:47:12.366Z,24.40
2019-06-07T10:51:21.719Z,24.60
2019-06-07T10:55:30.505Z,24.90
2019-06-07T10:59:39.559Z,24.90
2019-06-07T11:03:48.436Z,24.70
2019-06-07T11:08:00.496Z,24.70
2019-06-07T11:12:08.411Z,24.90
2019-06-07T11:16:17.516Z,25.00
2019-06-07T11:20:26.462Z,25.60
2019-06-07T11:24:35.234Z,25.80
2019-06-07T11:28:43.996Z,26.00
2019-06-07T11:32:52.765Z,25.60
2019-06-07T11:37:01.800Z,25.40
2019-06-07T11:41:11.583Z,25.70
2019-06-07T11:45:20.569Z,25.90
2019-06-07T11:49:29.504Z,25.30
2019-06-07T11:53:38.278Z,24.80
2019-06-07T11:57:47.045Z,24.70
2019-06-07T12:01:55.810Z,25.20
2019-06-07T12:06:04.723Z,25.40
2019-06-07T12:10:16.577Z,25.80
2019-06-07T12:14:24.647Z,26.00
2019-06-07T12:18:33.426Z,26.60
2019-06-07T12:22:42.191Z,26.70
2019-06-07T12:26:51.151Z,26.70
2019-06-07T12:31:00.148Z,26.80
2019-06-07T12:35:09.171Z,26.50
2019-06-07T12:39:18.089Z,26.50
2019-06-07T12:43:29.158Z,26.50
2019-06-07T12:47:38.021Z,26.40
2019-06-07T12:51:46.854Z,25.70
2019-06-07T12:55:55.633Z,25.60
2019-06-07T13:00:06.663Z,25.70
2019-06-07T13:04:16.325Z,25.60
2019-06-07T13:08:25.254Z,25.60
2019-06-07T13:12:34.031Z,25.80
2019-06-07T13:16:42.968Z,26.20
2019-06-07T13:20:55.185Z,26.30
2019-06-07T13:25:02.409Z,26.60
2019-06-07T13:29:11.240Z,26.60
2019-06-07T13:33:21.764Z,26.90
2019-06-07T13:37:30.622Z,27.50
2019-06-07T13:41:42.832Z,27.50
2019-06-07T13:45:49.930Z,27.60
2019-06-07T13:49:58.708Z,27.30
2019-06-07T13:54:07.502Z,27.20
2019-06-07T13:58:16.266Z,27.30
2019-06-07T14:02:26.125Z,26.80
2019-06-07T14:06:35.641Z,26.50
2019-06-07T14:10:44.602Z,25.80
2019-06-07T14:14:53.455Z,25.10
2019-06-07T14:19:02.419Z,24.50
2019-06-07T14:23:11.243Z,23.90
2019-06-07T14:27:21.301Z,23.30
2019-06-07T14:31:30.454Z,22.60
2019-06-07T14:35:39.208Z,22.30
2019-06-07T14:39:48.385Z,22.00
2019-06-07T14:43:57.168Z,21.80
2019-06-07T14:48:06.090Z,21.80
2019-06-07T14:52:14.930Z,21.80
2019-06-07T14:56:24.848Z,21.80
2019-06-07T15:00:42.041Z,21.40
2019-06-07T15:04:51.082Z,21.10
2019-06-07T15:08:59.985Z,21.20
2019-06-07T15:13:08.894Z,21.40
2019-06-07T15:17:17.946Z,21.50
2019-06-07T15:21:26.840Z,21.80
2019-06-07T15:25:35.737Z,21.70
2019-06-07T15:29:44.541Z,21.60
2019-06-07T15:33:53.351Z,21.50
2019-06-07T15:38:02.308Z,21.20
2019-06-07T15:42:11.223Z,21.20
2019-06-07T15:46:20.111Z,20.80
2019-06-07T15:50:30.468Z,20.20
2019-06-07T15:54:40.604Z,19.50
2019-06-07T15:58:49.601Z,19.00
2019-06-07T16:02:58.979Z,18.90
2019-06-07T16:07:07.759Z,18.90
2019-06-07T16:11:16.705Z,18.70
2019-06-07T16:15:25.700Z,18.30
2019-06-07T16:19:39.310Z,18.30
2019-06-07T16:23:45.156Z,18.20
2019-06-07T16:27:54.071Z,18.20
2019-06-07T16:32:02.877Z,18.30
2019-06-07T16:36:11.855Z,17.90
2019-06-07T16:40:21.198Z,17.40
2019-06-07T16:44:30.247Z,17.00
2019-06-07T16:48:39.086Z,16.60
2019-06-07T16:52:48.582Z,16.20
2019-06-07T16:56:57.559Z,15.70
2019-06-07T17:01:06.782Z,15.20
2019-06-07T17:05:17.059Z,14.80
2019-06-07T17:09:26.009Z,14.50
2019-06-07T17:13:34.786Z,14.40
2019-06-07T17:17:44.981Z,14.30
2019-06-07T17:21:54.574Z,14.30
2019-06-07T17:26:03.458Z,14.30
2019-06-07T17:30:12.986Z,14.20
2019-06-07T17:34:21.760Z,14.10
2019-06-07T17:38:30.535Z,14.10
2019-06-07T17:42:40.595Z,14.00
2019-06-07T17:46:49.976Z,13.90
2019-06-07T17:50:59.007Z,13.90
2019-06-07T17:55:09.004Z,13.80
2019-06-07T17:59:17.855Z,13.80
2019-06-07T18:03:26.630Z,13.80
2019-06-07T18:07:36.128Z,13.90
2019-06-07T18:11:45.820Z,14.00
2019-06-07T18:15:58.992Z,14.00
2019-06-07T18:20:06.031Z,14.00
2019-06-07T18:24:14.868Z,14.00
2019-06-07T18:28:24.230Z,14.00
2019-06-07T18:32:33.016Z,14.00
2019-06-07T18:36:41.782Z,13.90
2019-06-07T18:40:51.285Z,13.90
2019-06-07T18:45:00.337Z,13.80
2019-06-07T18:49:09.242Z,13.80
2019-06-07T18:53:18.145Z,13.80
2019-06-07T18:57:26.990Z,13.70
2019-06-07T19:01:35.954Z,13.60
2019-06-07T19:05:44.821Z,13.60
2019-06-07T19:09:54.903Z,13.60
2019-06-07T19:14:04.287Z,13.70
2019-06-07T19:18:13.205Z,13.70
2019-06-07T19:22:22.010Z,13.80
2019-06-07T19:26:30.811Z,13.70
2019-06-07T19:30:39.599Z,13.70
2019-06-07T19:34:48.474Z,13.70
2019-06-07T19:38:57.933Z,13.70
2019-06-07T19:43:07.780Z,13.70
2019-06-07T19:47:16.762Z,13.70
2019-06-07T19:51:25.776Z,13.60
2019-06-07T19:55:34.557Z,13.60
2019-06-07T19:59:43.335Z,13.50
2019-06-07T20:03:52.106Z,13.50
2019-06-07T20:08:00.899Z,13.50
2019-06-07T20:12:09.798Z,13.50
2019-06-07T20:16:18.590Z,13.50
2019-06-07T20:20:29.963Z,13.50
2019-06-07T20:24:38.246Z,13.50
2019-06-07T20:28:47.702Z,13.40
2019-06-07T20:32:57.658Z,13.30
2019-06-07T20:37:07.773Z,13.30
2019-06-07T20:41:17.106Z,13.30
2019-06-07T20:45:33.461Z,13.40
2019-06-07T20:49:36.494Z,13.40
2019-06-07T20:53:45.290Z,13.50
2019-06-07T20:57:54.076Z,13.60
2019-06-07T21:02:03.058Z,13.70
2019-06-07T21:06:12.201Z,13.80
2019-06-07T21:10:20.995Z,13.80
2019-06-07T21:14:29.757Z,13.90
2019-06-07T21:18:38.850Z,13.90
2019-06-07T21:22:47.666Z,14.00
2019-06-07T21:26:56.447Z,14.00
2019-06-07T21:31:06.565Z,14.10
2019-06-07T21:35:15.702Z,14.10
2019-06-07T21:39:24.737Z,14.20
2019-06-07T21:43:33.598Z,14.20
2019-06-07T21:47:42.497Z,14.10
2019-06-07T21:51:51.375Z,14.00
2019-06-07T21:56:00.167Z,13.90
2019-06-07T22:00:15.042Z,13.70
2019-06-07T22:04:23.927Z,13.60
2019-06-07T22:08:32.740Z,13.40
2019-06-07T22:12:41.557Z,13.40
2019-06-07T22:16:50.420Z,13.40
2019-06-07T22:20:59.451Z,13.40
2019-06-07T22:25:09.221Z,13.50
2019-06-07T22:29:19.391Z,13.60
2019-06-07T22:33:28.388Z,13.60
2019-06-07T22:37:37.457Z,13.70
2019-06-07T22:41:46.260Z,13.80
2019-06-07T22:45:55.163Z,13.90
2019-06-07T22:50:04.297Z,13.90
2019-06-07T22:54:14.036Z,14.00
2019-06-07T22:58:22.968Z,14.00
2019-06-07T23:02:31.773Z,14.10
2019-06-07T23:06:40.699Z,14.10
2019-06-07T23:10:49.516Z,14.10
2019-06-07T23:14:58.677Z,14.00
2019-06-07T23:19:07.642Z,14.00
2019-06-07T23:23:17.320Z,14.00
2019-06-07T23:27:26.400Z,14.00
2019-06-07T23:31:35.293Z,14.00
2019-06-07T23:35:44.113Z,14.00
2019-06-07T23:39:52.921Z,14.00
2019-06-07T23:44:01.753Z,14.00
2019-06-07T23:48:11.244Z,13.90
2019-06-07T23:52:20.242Z,13.90
2019-06-07T23:56:29.080Z,13.80
